Time;durP1;ratioP1;P1;durP2;ratioP2;P2;SDS_P1;SDS_P2;PMS_P1;PMS_P2;Temp;Humidity;BMP_temperature;BMP_pressure;BME280_temperature;BME280_humidity;BME280_pressure;Samples;Min_cycle;Max_cycle;Signal;HPM_P1;HPM_P2
2023/04/18 00:00:33;;;;;;;32.75;25.83;;;;;;;9.72;100.00;100295.88;5052316;28;20484;-75
2023/04/18 00:02:58;;;;;;;32.95;26.17;;;;;;;9.68;100.00;100295.13;5052032;28;20104;-75
2023/04/18 00:05:24;;;;;;;33.75;26.35;;;;;;;9.48;100.00;100248.97;5051712;28;20025;-74
2023/04/18 00:07:50;;;;;;;33.63;26.50;;;;;;;9.74;100.00;100291.47;5051812;28;20029;-75
2023/04/18 00:10:15;;;;;;;31.83;26.17;;;;;;;9.70;100.00;100293.31;5051566;28;20048;-75
2023/04/18 00:12:41;;;;;;;33.17;26.10;;;;;;;9.53;100.00;100274.81;5052043;28;20087;-75
2023/04/18 00:15:08;;;;;;;33.70;25.65;;;;;;;9.69;100.00;100293.34;5052032;28;20029;-75
2023/04/18 00:17:37;;;;;;;36.25;26.90;;;;;;;9.52;100.00;100256.66;5051821;28;20024;-75
2023/04/18 00:20:03;;;;;;;36.83;26.30;;;;;;;9.76;100.00;100292.25;5051838;28;20025;-75
2023/04/18 00:22:29;;;;;;;35.63;26.88;;;;;;;9.52;100.00;100259.25;5051467;28;20455;-75
2023/04/18 00:24:54;;;;;;;36.38;27.02;;;;;;;9.63;100.00;100283.16;5051602;28;20071;-75
2023/04/18 00:27:20;;;;;;;40.25;27.40;;;;;;;9.31;100.00;100260.78;5051580;28;20025;-75
2023/04/18 00:29:47;;;;;;;35.88;27.55;;;;;;;9.47;100.00;100291.44;5051834;28;20091;-75
2023/04/18 00:32:13;;;;;;;33.13;27.35;;;;;;;9.46;100.00;100268.09;5051795;28;20037;-75
2023/04/18 00:34:39;;;;;;;37.63;28.30;;;;;;;9.54;100.00;100289.53;5051940;28;20117;-75
2023/04/18 00:37:05;;;;;;;39.53;28.88;;;;;;;9.57;100.00;100273.81;5051566;28;20021;-75
2023/04/18 00:39:31;;;;;;;34.70;27.15;;;;;;;9.60;100.00;100288.47;5051101;28;20043;-75
2023/04/18 00:41:56;;;;;;;33.58;27.58;;;;;;;9.43;100.00;100268.19;5051534;28;20029;-75
2023/04/18 00:44:22;;;;;;;33.42;26.88;;;;;;;9.43;100.00;100263.00;5051549;28;20391;-75
2023/04/18 00:46:47;;;;;;;37.45;27.73;;;;;;;9.58;100.00;100279.88;5051510;28;20452;-75
2023/04/18 00:49:12;;;;;;;37.40;29.45;;;;;;;9.62;100.00;100278.88;5051244;28;20235;-75
2023/04/18 00:51:39;;;;;;;36.40;27.92;;;;;;;9.53;100.00;100258.38;5051431;28;20090;-75
2023/04/18 00:54:06;;;;;;;39.17;28.92;;;;;;;9.58;100.00;100270.31;5051194;28;20546;-75
2023/04/18 00:56:31;;;;;;;34.60;27.17;;;;;;;9.55;100.00;100266.97;5051377;28;20400;-75
2023/04/18 00:58:57;;;;;;;41.53;28.90;;;;;;;9.44;100.00;100270.78;5051480;28;20033;-75
2023/04/18 01:01:22;;;;;;;38.92;29.58;;;;;;;9.62;100.00;100277.13;5052054;28;20442;-75
2023/04/18 01:03:47;;;;;;;39.20;30.48;;;;;;;9.24;100.00;100257.56;5055241;28;20025;-75
2023/04/18 01:06:13;;;;;;;38.10;29.95;;;;;;;9.31;100.00;100271.19;5054890;28;20029;-75
2023/04/18 01:08:40;;;;;;;44.28;32.40;;;;;;;9.26;100.00;100253.13;5055302;28;20021;-75
2023/04/18 01:11:05;;;;;;;37.13;29.15;;;;;;;9.30;100.00;100254.75;5055289;28;20029;-75
2023/04/18 01:13:31;;;;;;;40.30;28.15;;;;;;;9.31;100.00;100276.38;5054917;28;20544;-75
2023/04/18 01:15:57;;;;;;;37.42;29.45;;;;;;;9.28;100.00;100248.75;5055093;28;20056;-75
2023/04/18 01:18:24;;;;;;;36.63;28.88;;;;;;;9.43;100.00;100252.59;5054764;28;20053;-75
2023/04/18 01:20:50;;;;;;;41.88;30.65;;;;;;;9.33;100.00;100248.59;5054882;28;20388;-75
2023/04/18 01:23:17;;;;;;;39.08;30.92;;;;;;;9.34;100.00;100250.31;5054536;28;20135;-75
2023/04/18 01:25:44;;;;;;;39.33;30.67;;;;;;;9.43;100.00;100276.00;5055075;28;20396;-75
2023/04/18 01:28:11;;;;;;;39.38;30.10;;;;;;;9.47;100.00;100278.44;5054866;28;20074;-75
2023/04/18 01:30:36;;;;;;;38.67;30.75;;;;;;;9.27;100.00;100259.19;5054571;28;20127;-75
2023/04/18 01:33:05;;;;;;;35.25;28.80;;;;;;;9.19;100.00;100252.50;5054637;28;20128;-75
2023/04/18 01:35:31;;;;;;;39.63;30.60;;;;;;;9.23;100.00;100259.31;5054310;28;20025;-75
2023/04/18 01:37:57;;;;;;;40.90;31.75;;;;;;;9.30;100.00;100248.69;5054516;28;20021;-75
2023/04/18 01:40:23;;;;;;;36.08;29.08;;;;;;;9.36;100.00;100279.72;5054452;28;20025;-75
2023/04/18 01:42:49;;;;;;;39.70;31.23;;;;;;;9.30;100.00;100254.75;5054427;28;20469;-75
2023/04/18 01:45:15;;;;;;;39.95;31.88;;;;;;;9.27;100.00;100273.06;5054472;28;20029;-75
2023/04/18 01:47:40;;;;;;;36.42;31.02;;;;;;;9.22;100.00;100267.97;5054431;28;20025;-75
2023/04/18 01:50:06;;;;;;;38.10;29.92;;;;;;;9.05;100.00;100233.88;5054394;28;20044;-75
2023/04/18 01:52:32;;;;;;;40.17;29.80;;;;;;;9.28;100.00;100271.31;5053993;28;20054;-75
2023/04/18 01:54:57;;;;;;;43.13;32.25;;;;;;;9.13;100.00;100263.06;5054425;28;20029;-75
2023/04/18 01:57:23;;;;;;;40.25;30.50;;;;;;;9.24;100.00;100266.19;5054129;28;20104;-75
2023/04/18 01:59:48;;;;;;;40.47;32.80;;;;;;;9.20;100.00;100242.94;5054245;28;20551;-75
2023/04/18 02:02:13;;;;;;;38.08;30.35;;;;;;;9.36;100.00;100272.75;5054080;28;20063;-75
2023/04/18 02:04:39;;;;;;;39.78;31.13;;;;;;;9.38;100.00;100275.31;5053913;28;20053;-75
2023/04/18 02:07:05;;;;;;;41.80;30.77;;;;;;;9.22;100.00;100267.13;5053919;28;20380;-76
2023/04/18 02:09:30;;;;;;;38.83;29.85;;;;;;;9.15;100.00;100250.88;5053967;28;20029;-75
2023/04/18 02:11:58;;;;;;;42.13;31.50;;;;;;;9.20;100.00;100237.75;5053844;28;20126;-75
2023/04/18 02:14:24;;;;;;;37.92;30.48;;;;;;;9.16;100.00;100239.59;5053783;28;20028;-75
2023/04/18 02:16:49;;;;;;;40.13;30.45;;;;;;;9.00;100.00;100241.81;5053855;28;20033;-76
2023/04/18 02:19:15;;;;;;;39.08;31.75;;;;;;;9.14;100.00;100272.59;5053811;28;20036;-75
2023/04/18 02:21:40;;;;;;;37.78;29.70;;;;;;;9.03;100.00;100253.88;5053439;28;20025;-75
2023/04/18 02:24:06;;;;;;;41.42;31.10;;;;;;;9.09;100.00;100265.81;5053866;28;20029;-75
2023/04/18 02:26:31;;;;;;;42.88;33.67;;;;;;;9.27;100.00;100273.06;5053689;28;20021;-75
2023/04/18 02:28:57;;;;;;;37.95;30.35;;;;;;;9.19;100.00;100270.69;5053759;28;20115;-75
2023/04/18 02:31:22;;;;;;;38.78;31.95;;;;;;;9.22;100.00;100275.78;5053591;28;20060;-75
2023/04/18 02:33:48;;;;;;;41.47;31.88;;;;;;;9.09;100.00;100274.44;5053580;28;20064;-75
2023/04/18 02:36:13;;;;;;;40.45;31.77;;;;;;;8.97;100.00;100256.63;5053355;28;20082;-75
2023/04/18 02:38:39;;;;;;;40.85;33.53;;;;;;;9.02;100.00;100252.16;5053404;28;20116;-75
2023/04/18 02:41:04;;;;;;;41.22;31.77;;;;;;;9.06;100.00;100271.97;5053547;28;20460;-75
2023/04/18 02:43:29;;;;;;;39.38;31.40;;;;;;;8.80;100.00;100251.09;5053120;28;20024;-75
2023/04/18 02:45:55;;;;;;;40.00;31.60;;;;;;;8.77;100.00;100253.81;5053585;28;20104;-75
2023/04/18 02:48:22;;;;;;;42.38;31.58;;;;;;;8.94;100.00;100280.13;5053038;28;20021;-75
2023/04/18 02:50:47;;;;;;;42.33;33.28;;;;;;;8.99;100.00;100278.25;5053099;28;20290;-75
2023/04/18 02:53:12;;;;;;;40.15;31.80;;;;;;;8.84;100.00;100247.50;5053165;28;20607;-75
2023/04/18 02:55:38;;;;;;;43.08;33.78;;;;;;;8.85;100.00;100237.09;5052985;28;20041;-75
2023/04/18 02:58:03;;;;;;;40.45;31.70;;;;;;;8.87;100.00;100252.63;5053084;28;20029;-75
2023/04/18 03:00:28;;;;;;;43.60;32.15;;;;;;;8.99;100.00;100271.28;5052925;28;20051;-75
2023/04/18 03:02:54;;;;;;;42.85;32.33;;;;;;;9.02;100.00;100265.16;5053365;28;20465;-75
2023/04/18 03:05:20;;;;;;;40.97;33.10;;;;;;;9.03;100.00;100271.22;5052932;28;20032;-75
2023/04/18 03:07:45;;;;;;;40.33;32.13;;;;;;;9.11;100.00;100272.66;5052797;28;20373;-75
2023/04/18 03:10:10;;;;;;;36.33;31.60;;;;;;;9.22;100.00;100272.31;5052779;28;20055;-75
2023/04/18 03:12:36;;;;;;;39.45;30.38;;;;;;;9.01;100.00;100227.06;5052838;28;20587;-75
2023/04/18 03:15:01;;;;;;;40.88;31.40;;;;;;;9.05;100.00;100267.66;5052843;28;20103;-75
2023/04/18 03:17:27;;;;;;;37.97;30.92;;;;;;;8.92;100.00;100259.38;5052497;28;20025;-75
2023/04/18 03:19:52;;;;;;;42.03;33.15;;;;;;;9.10;100.00;100283.09;5052570;28;20120;-75
2023/04/18 03:22:18;;;;;;;40.28;31.42;;;;;;;9.04;100.00;100246.91;5052792;28;20021;-75
2023/04/18 03:24:43;;;;;;;40.42;30.85;;;;;;;8.95;100.00;100258.44;5051986;28;20045;-75
2023/04/18 03:27:10;;;;;;;39.25;30.20;;;;;;;9.05;100.00;100280.63;5052581;28;20082;-74
2023/04/18 03:29:35;;;;;;;40.92;32.17;;;;;;;8.93;100.00;100258.50;5052661;28;20063;-75
2023/04/18 03:32:00;;;;;;;44.17;33.10;;;;;;;9.12;100.00;100274.38;5052310;28;20091;-75
2023/04/18 03:34:26;;;;;;;37.50;29.98;;;;;;;8.86;100.00;100243.13;5052086;28;20025;-75
2023/04/18 03:36:51;;;;;;;36.03;30.25;;;;;;;9.14;100.00;100261.31;5052678;28;20040;-75
2023/04/18 03:39:16;;;;;;;39.58;30.17;;;;;;;9.10;100.00;100260.59;5052443;28;20069;-75
2023/04/18 03:41:42;;;;;;;40.42;31.10;;;;;;;9.33;100.00;100280.66;5052102;28;20067;-75
2023/04/18 03:44:08;;;;;;;40.25;31.55;;;;;;;9.22;100.00;100280.13;5052135;28;20033;-75
2023/04/18 03:46:34;;;;;;;43.40;32.17;;;;;;;9.03;100.00;100279.84;5051884;28;20032;-75
2023/04/18 03:48:59;;;;;;;42.85;31.75;;;;;;;8.94;100.00;100257.59;5052027;28;20048;-75
2023/04/18 03:51:25;;;;;;;40.00;29.20;;;;;;;9.06;100.00;100279.75;5052120;28;20056;-75
2023/04/18 03:53:50;;;;;;;41.38;30.92;;;;;;;9.06;100.00;100276.28;5052217;28;20029;-75
2023/04/18 03:56:15;;;;;;;40.38;30.38;;;;;;;8.86;100.00;100253.53;5052133;28;20021;-75
2023/04/18 03:58:41;;;;;;;39.40;29.90;;;;;;;8.77;100.00;100262.44;5051799;28;20493;-75
2023/04/18 04:01:06;;;;;;;38.92;30.05;;;;;;;8.58;100.00;100254.31;5051977;28;20017;-75
2023/04/18 04:03:32;;;;;;;41.65;31.13;;;;;;;8.82;100.00;100259.72;5051402;28;20025;-75
2023/04/18 04:05:57;;;;;;;40.42;31.42;;;;;;;8.75;100.00;100267.66;5051713;28;20087;-75
2023/04/18 04:08:22;;;;;;;41.97;31.92;;;;;;;8.88;100.00;100290.69;5052083;28;20388;-75
2023/04/18 04:10:48;;;;;;;38.80;31.98;;;;;;;8.88;100.00;100256.91;5051773;28;20025;-75
2023/04/18 04:13:13;;;;;;;41.50;31.63;;;;;;;9.01;100.00;100281.63;5052134;28;20039;-75
2023/04/18 04:15:38;;;;;;;43.67;32.00;;;;;;;8.80;100.00;100270.13;5051741;28;20021;-75
2023/04/18 04:18:05;;;;;;;39.78;31.75;;;;;;;9.02;100.00;100287.66;5051857;28;20028;-75
2023/04/18 04:20:30;;;;;;;43.72;33.78;;;;;;;8.87;100.00;100271.66;5051517;28;20032;-75
2023/04/18 04:22:57;;;;;;;42.75;32.20;;;;;;;8.87;100.00;100265.63;5051894;28;20370;-75
2023/04/18 04:25:27;;;;;;;42.22;33.25;;;;;;;8.84;100.00;100278.69;5051897;28;20025;-75
2023/04/18 04:27:53;;;;;;;42.50;32.20;;;;;;;8.62;100.00;100279.31;5051668;28;20037;-75
2023/04/18 04:30:19;;;;;;;43.38;34.72;;;;;;;8.59;100.00;100268.16;5051554;28;20131;-75
2023/04/18 04:32:46;;;;;;;42.00;32.13;;;;;;;8.78;100.00;100307.44;5051402;28;20033;-74
2023/04/18 04:35:11;;;;;;;43.35;33.25;;;;;;;8.82;100.00;100294.31;5051637;28;20029;-75
2023/04/18 04:37:37;;;;;;;46.22;34.42;;;;;;;8.91;100.00;100273.25;5054718;28;20050;-75
2023/04/18 04:40:04;;;;;;;44.50;34.17;;;;;;;9.03;100.00;100294.59;5055752;28;20136;-75
2023/04/18 04:42:30;;;;;;;41.15;32.80;;;;;;;8.70;100.00;100281.69;5055499;28;20126;-75
2023/04/18 04:44:56;;;;;;;40.45;32.83;;;;;;;9.00;100.00;100298.13;5055594;28;20025;-75
2023/04/18 04:47:21;;;;;;;43.50;33.45;;;;;;;8.85;100.00;100280.38;5055406;28;20083;-75
2023/04/18 04:49:46;;;;;;;40.55;30.92;;;;;;;8.79;100.00;100280.56;5055498;28;20112;-75
2023/04/18 04:52:12;;;;;;;41.13;30.65;;;;;;;8.80;100.00;100290.06;5055633;28;20025;-75
2023/04/18 04:54:37;;;;;;;42.60;32.25;;;;;;;8.86;100.00;100289.91;5053945;28;20536;-75
2023/04/18 04:57:03;;;;;;;45.15;31.30;;;;;;;8.93;100.00;100305.25;5055473;28;20029;-75
2023/04/18 04:59:28;;;;;;;41.95;32.10;;;;;;;8.99;100.00;100304.22;5055118;28;20033;-75
2023/04/18 05:01:53;;;;;;;43.95;34.97;;;;;;;8.81;100.00;100286.59;5055224;28;20121;-75
2023/04/18 05:04:19;;;;;;;40.03;32.13;;;;;;;8.71;100.00;100279.03;5055485;28;20025;-75
2023/04/18 05:06:44;;;;;;;43.65;33.45;;;;;;;8.75;100.00;100282.41;5055043;28;20017;-75
2023/04/18 05:09:10;;;;;;;44.78;33.38;;;;;;;8.77;100.00;100287.56;5032849;28;20083;-75
2023/04/18 05:11:35;;;;;;;40.90;31.45;;;;;;;8.65;100.00;100283.56;5032528;28;20034;-75
2023/04/18 05:14:00;;;;;;;41.90;31.77;;;;;;;8.77;100.00;100292.75;5032695;28;20045;-75
2023/04/18 05:16:26;;;;;;;39.72;29.98;;;;;;;8.89;100.00;100300.16;5032657;28;20029;-75
2023/04/18 05:18:51;;;;;;;37.97;30.35;;;;;;;9.00;100.00;100311.97;5032342;28;20044;-75
2023/04/18 05:21:16;;;;;;;38.78;30.92;;;;;;;8.97;100.00;100314.66;5032572;28;20022;-75
2023/04/18 05:23:42;;;;;;;42.45;32.72;;;;;;;8.85;100.00;100289.06;5032205;28;20087;-75
2023/04/18 05:26:07;;;;;;;40.90;32.08;;;;;;;9.04;100.00;100317.91;5032380;28;20053;-75
2023/04/18 05:28:32;;;;;;;36.42;28.70;;;;;;;9.02;100.00;100321.44;5032465;28;20038;-75
2023/04/18 05:31:01;;;;;;;39.22;29.10;;;;;;;8.95;100.00;100326.00;5032168;28;20060;-75
2023/04/18 05:33:30;;;;;;;37.08;29.23;;;;;;;8.93;100.00;100318.25;5032387;28;20531;-75
2023/04/18 05:35:56;;;;;;;39.95;31.27;;;;;;;8.79;100.00;100294.41;5032228;28;20069;-75
2023/04/18 05:38:21;;;;;;;36.78;29.27;;;;;;;9.09;100.00;100329.03;5032284;28;20105;-75
2023/04/18 05:40:49;;;;;;;36.67;26.42;;;;;;;8.84;100.00;100312.44;5048894;28;20561;-75
2023/04/18 05:43:15;;;;;;;38.45;31.27;;;;;;;9.00;100.00;100311.97;5054545;28;20032;-74
2023/04/18 05:45:40;;;;;;;36.67;28.65;;;;;;;8.99;100.00;100306.81;5054199;28;20029;-75
2023/04/18 05:48:05;;;;;;;36.75;28.17;;;;;;;9.06;100.00;100315.25;5054069;28;20518;-75
2023/04/18 05:50:31;;;;;;;35.63;27.52;;;;;;;9.21;100.00;100328.66;5054141;28;20392;-75
2023/04/18 05:52:58;;;;;;;38.33;26.08;;;;;;;9.10;100.00;100319.47;5054431;28;20032;-75
2023/04/18 05:55:24;;;;;;;34.50;27.80;;;;;;;9.10;100.00;100315.16;5054346;28;20025;-75
2023/04/18 05:57:49;;;;;;;37.50;27.02;;;;;;;9.17;100.00;100336.59;5054017;28;20033;-75
2023/04/18 06:00:16;;;;;;;32.70;26.45;;;;;;;9.13;100.00;100334.97;5054084;28;20029;-75
2023/04/18 06:02:41;;;;;;;36.05;27.13;;;;;;;8.92;100.00;100318.28;5054083;28;20041;-75
2023/04/18 06:05:07;;;;;;;36.80;29.33;;;;;;;8.93;100.00;100339.03;5054054;28;20029;-75
2023/04/18 06:07:33;;;;;;;37.88;27.58;;;;;;;8.82;100.00;100337.63;5053872;28;20029;-75
2023/04/18 06:09:58;;;;;;;37.50;27.73;;;;;;;9.01;100.00;100341.38;5054180;28;20052;-75
2023/04/18 06:12:23;;;;;;;40.70;30.55;;;;;;;8.98;100.00;100323.31;5053925;28;20064;-75
2023/04/18 06:14:49;;;;;;;37.67;29.25;;;;;;;9.12;100.00;100344.53;5053635;28;20055;-75
2023/04/18 06:17:15;;;;;;;41.33;29.65;;;;;;;9.09;100.00;100318.63;5053831;28;20117;-75
2023/04/18 06:19:40;;;;;;;34.60;27.27;;;;;;;8.98;100.00;100324.16;5053960;28;20029;-75
2023/04/18 06:22:06;;;;;;;37.38;27.13;;;;;;;9.08;100.00;100339.47;5053890;28;20025;-75
2023/04/18 06:24:31;;;;;;;33.50;26.75;;;;;;;9.10;100.00;100351.53;5053833;28;20388;-75
2023/04/18 06:26:56;;;;;;;39.72;29.65;;;;;;;9.19;100.00;100353.00;5053380;28;20025;-75
2023/04/18 06:29:22;;;;;;;37.95;29.80;;;;;;;9.06;100.00;100328.25;5053570;28;20116;-75
2023/04/18 06:31:49;;;;;;;38.67;28.90;;;;;;;8.99;100.00;100335.41;5053542;28;20098;-75
2023/04/18 06:34:15;;;;;;;38.30;29.13;;;;;;;9.09;100.00;100336.81;5053750;28;20377;-75
2023/04/18 06:36:40;;;;;;;43.80;31.27;;;;;;;9.21;100.00;100361.59;5053341;28;20025;-75
2023/04/18 06:39:06;;;;;;;38.70;28.98;;;;;;;9.16;100.00;100348.75;5053276;28;20550;-75
2023/04/18 06:41:31;;;;;;;35.40;27.48;;;;;;;8.95;100.00;100337.22;5053423;28;20033;-75
2023/04/18 06:43:57;;;;;;;37.25;28.23;;;;;;;9.15;100.00;100347.06;5053243;28;20025;-75
2023/04/18 06:46:22;;;;;;;37.60;26.67;;;;;;;9.04;100.00;100353.44;5053297;28;20032;-75
2023/04/18 06:48:48;;;;;;;37.25;27.75;;;;;;;8.96;100.00;100338.91;5053290;28;20055;-75
2023/04/18 06:51:13;;;;;;;37.47;29.02;;;;;;;9.11;100.00;100342.84;5053284;28;20033;-75
2023/04/18 06:53:39;;;;;;;40.60;29.52;;;;;;;9.15;100.00;100349.66;5052985;28;20028;-75
2023/04/18 06:56:04;;;;;;;40.28;28.08;;;;;;;9.22;100.00;100364.16;5053080;28;20021;-75
2023/04/18 06:58:30;;;;;;;36.92;29.70;;;;;;;9.38;100.00;100359.34;5052349;28;20029;-75
2023/04/18 07:00:55;;;;;;;39.78;30.15;;;;;;;9.27;100.00;100327.66;5052738;28;20142;-75
2023/04/18 07:03:20;;;;;;;36.88;28.42;;;;;;;9.31;100.00;100347.41;5053187;28;20029;-75
2023/04/18 07:05:46;;;;;;;35.05;26.38;;;;;;;9.38;100.00;100358.50;5053078;28;20025;-75
2023/04/18 07:08:11;;;;;;;31.00;25.58;;;;;;;9.50;100.00;100366.78;5053270;28;20341;-75
2023/04/18 07:10:36;;;;;;;35.38;28.70;;;;;;;9.51;100.00;100362.41;5052688;28;20079;-75
2023/04/18 07:13:02;;;;;;;32.65;26.75;;;;;;;9.45;100.00;100367.81;5052796;28;20475;-75
2023/04/18 07:15:27;;;;;;;38.08;28.48;;;;;;;9.42;100.00;100357.50;5051406;28;20035;-75
2023/04/18 07:17:53;;;;;;;35.70;26.80;;;;;;;9.53;100.00;100370.19;5052910;28;20025;-75
2023/04/18 07:20:18;;;;;;;40.30;32.17;;;;;;;9.60;100.00;100382.09;5052793;28;20103;-77
2023/04/18 07:22:44;;;;;;;39.05;31.25;;;;;;;9.55;100.00;100358.81;5052455;28;20025;-75
2023/04/18 07:25:10;;;;;;;42.38;29.23;;;;;;;9.78;100.00;100372.88;5052584;28;20021;-75
2023/04/18 07:27:36;;;;;;;43.50;32.72;;;;;;;9.71;100.00;100382.63;5052436;28;20491;-75
2023/04/18 07:30:02;;;;;;;43.42;33.80;;;;;;;9.73;100.00;100376.47;5052041;28;20055;-75
2023/04/18 07:32:28;;;;;;;37.88;31.23;;;;;;;9.52;100.00;100356.31;5052647;28;20028;-75
2023/04/18 07:34:53;;;;;;;38.03;30.42;;;;;;;9.63;100.00;100376.81;5052165;28;20468;-75
2023/04/18 07:37:20;;;;;;;45.55;36.40;;;;;;;9.53;100.00;100372.78;5052224;28;20067;-75
2023/04/18 07:39:46;;;;;;;37.55;30.20;;;;;;;9.54;100.00;100364.09;5052125;28;20109;-75
2023/04/18 07:42:11;;;;;;;45.72;37.78;;;;;;;9.73;100.00;100381.69;5052534;28;20503;-75
2023/04/18 07:44:37;;;;;;;41.30;31.90;;;;;;;9.47;100.00;100345.22;5052449;28;20037;-75
2023/04/18 07:47:02;;;;;;;38.20;28.05;;;;;;;9.72;100.00;100366.94;5052116;28;20020;-75
2023/04/18 07:49:28;;;;;;;38.00;30.33;;;;;;;9.65;100.00;100368.06;5052085;28;20078;-75
2023/04/18 07:51:54;;;;;;;41.63;32.97;;;;;;;9.73;100.00;100379.09;5051978;28;20056;-75
2023/04/18 07:54:20;;;;;;;37.15;30.13;;;;;;;9.75;100.00;100394.63;5052150;28;20090;-75
2023/04/18 07:56:45;;;;;;;37.67;31.23;;;;;;;9.78;100.00;100391.94;5051831;28;20493;-75
2023/04/18 07:59:11;;;;;;;39.08;30.65;;;;;;;9.84;100.00;100396.09;5047693;28;20600;-75
2023/04/18 08:01:36;;;;;;;36.08;30.38;;;;;;;9.95;100.00;100397.47;5038509;28;20028;-76
2023/04/18 08:04:01;;;;;;;38.50;30.52;;;;;;;9.66;100.00;100377.56;5040050;28;20175;-75
2023/04/18 08:06:27;;;;;;;38.83;30.17;;;;;;;9.64;100.00;100376.75;5039992;28;20037;-76
2023/04/18 08:08:53;;;;;;;35.15;29.75;;;;;;;9.90;100.00;100411.50;5048623;28;20033;-76
2023/04/18 08:11:18;;;;;;;38.90;31.17;;;;;;;9.74;100.00;100383.38;5035174;28;20037;-76
2023/04/18 08:13:43;;;;;;;44.45;31.00;;;;;;;9.84;100.00;100411.69;5036384;28;20040;-76
2023/04/18 08:16:09;;;;;;;40.45;30.67;;;;;;;9.75;100.00;100397.22;5036652;28;20025;-75
2023/04/18 08:18:34;;;;;;;41.17;32.13;;;;;;;9.71;100.00;100411.22;5031975;28;20099;-75
2023/04/18 08:20:59;;;;;;;43.83;34.72;;;;;;;9.72;100.00;100379.09;5031736;28;20029;-75
2023/04/18 08:23:25;;;;;;;39.38;32.38;;;;;;;9.88;100.00;100401.13;5033850;28;20088;-76
2023/04/18 08:25:50;;;;;;;39.78;31.45;;;;;;;10.06;100.00;100417.91;5032787;28;20021;-75
2023/04/18 08:28:16;;;;;;;35.95;31.20;;;;;;;10.16;100.00;100421.09;5034160;28;20067;-76
2023/04/18 08:30:42;;;;;;;37.70;31.95;;;;;;;10.08;100.00;100397.91;5039429;28;20049;-76
2023/04/18 08:33:08;;;;;;;41.72;33.22;;;;;;;10.20;100.00;100412.28;5048611;28;20025;-75
2023/04/18 08:35:34;;;;;;;42.10;32.67;;;;;;;10.29;100.00;100412.00;5049161;28;20033;-76
2023/04/18 08:38:00;;;;;;;38.88;29.88;;;;;;;10.18;100.00;100401.06;5041069;28;20108;-76
2023/04/18 08:40:25;;;;;;;40.47;31.17;;;;;;;10.24;100.00;100426.91;5039530;28;20032;-75
2023/04/18 08:42:52;;;;;;;42.08;32.30;;;;;;;10.23;100.00;100427.78;5032424;28;20030;-76
2023/04/18 08:45:18;;;;;;;46.22;33.92;;;;;;;10.27;100.00;100418.16;5031791;28;20025;-76
2023/04/18 08:47:44;;;;;;;41.83;32.97;;;;;;;10.23;100.00;100420.81;5031460;28;20108;-76
2023/04/18 08:50:10;;;;;;;43.30;34.50;;;;;;;10.00;100.00;100402.50;5031750;28;20133;-76
2023/04/18 08:52:38;;;;;;;44.10;35.50;;;;;;;10.02;100.00;100410.25;5031677;28;20056;-77
2023/04/18 08:55:04;;;;;;;44.08;34.55;;;;;;;10.01;100.00;100406.81;5031412;28;20034;-74
2023/04/18 08:57:30;;;;;;;45.15;35.70;;;;;;;10.22;100.00;100403.50;5031411;28;20268;-73
2023/04/18 08:59:56;;;;;;;44.47;35.60;;;;;;;10.49;100.00;100425.22;5031424;28;20096;-74
2023/04/18 09:02:41;;;;;;;44.13;32.78;;;;;;;10.42;100.00;100426.31;5031351;28;20022;-74
2023/04/18 09:05:26;;;;;;;42.65;33.10;;;;;;;10.08;100.00;100399.66;5031588;28;20029;-74
2023/04/18 09:07:54;;;;;;;44.13;34.88;;;;;;;10.41;100.00;100436.78;5031075;28;20017;-74
2023/04/18 09:10:33;;;;;;;42.75;32.45;;;;;;;10.41;100.00;100424.63;5031550;28;20030;-74
2023/04/18 09:13:01;;;;;;;41.33;33.75;;;;;;;10.39;100.00;100416.00;5031249;28;20417;-74
2023/04/18 09:15:28;;;;;;;43.75;33.28;;;;;;;10.31;100.00;100391.97;5031373;28;20370;-74
2023/04/18 09:17:57;;;;;;;42.88;33.90;;;;;;;10.47;100.00;100419.19;5031251;28;20025;-74
2023/04/18 09:20:34;;;;;;;45.65;34.17;;;;;;;10.67;100.00;100436.75;5031262;28;20022;-74
2023/04/18 09:23:02;;;;;;;42.22;34.72;;;;;;;10.59;100.00;100406.66;5033290;28;20083;-74
2023/04/18 09:25:36;;;;;;;47.72;35.80;;;;;;;10.85;100.00;100409.19;5034982;28;20022;-74
2023/04/18 09:28:03;;;;;;;47.58;34.83;;;;;;;11.07;100.00;100431.88;5034949;28;20481;-74
2023/04/18 09:30:33;;;;;;;50.78;38.28;;;;;;;11.14;100.00;100430.75;5034761;28;20052;-74
2023/04/18 09:33:00;;;;;;;48.03;33.20;;;;;;;11.16;100.00;100418.50;5034520;28;20031;-74
2023/04/18 09:35:26;;;;;;;42.50;34.83;;;;;;;11.27;100.00;100412.91;5034803;28;20030;-75
2023/04/18 09:37:51;;;;;;;46.38;33.53;;;;;;;11.23;100.00;100420.00;5034549;28;20110;-74
2023/04/18 09:40:18;;;;;;;47.67;36.58;;;;;;;11.21;100.00;100434.84;5034697;28;20500;-74
2023/04/18 09:42:45;;;;;;;44.35;36.67;;;;;;;11.25;100.00;100431.22;5034323;28;20032;-74
2023/04/18 09:45:11;;;;;;;42.60;35.40;;;;;;;11.34;100.00;100430.88;5034520;28;20048;-74
2023/04/18 09:47:38;;;;;;;45.95;35.15;;;;;;;11.17;100.00;100405.44;5034326;28;20532;-74
2023/04/18 09:50:05;;;;;;;41.53;35.08;;;;;;;11.36;100.00;100421.22;5034731;28;20168;-74
2023/04/18 09:52:40;;;;;;;45.50;36.25;;;;;;;11.28;100.00;100417.22;5034326;28;20040;-75
2023/04/18 09:55:11;;;;;;;43.78;35.88;;;;;;;11.29;100.00;100413.69;5034183;28;20485;-74
2023/04/18 09:57:41;;;;;;;43.03;34.33;;;;;;;11.17;100.00;100409.81;5034316;28;20040;-74
2023/04/18 10:00:09;;;;;;;44.63;35.90;;;;;;;11.20;100.00;100422.69;5033967;28;20029;-74
2023/04/18 10:02:47;;;;;;;43.58;34.28;;;;;;;11.22;100.00;100434.78;5034420;28;20025;-74
2023/04/18 10:05:13;;;;;;;49.92;39.40;;;;;;;11.28;100.00;100407.63;5034638;28;20029;-74
2023/04/18 10:07:39;;;;;;;44.60;34.35;;;;;;;11.28;100.00;100409.38;5034045;28;20025;-75
2023/04/18 10:10:05;;;;;;;45.10;35.60;;;;;;;11.37;100.00;100417.69;5033815;28;20477;-74
2023/04/18 10:12:32;;;;;;;43.40;35.28;;;;;;;11.28;100.00;100401.56;5033947;28;20021;-74
2023/04/18 10:14:58;;;;;;;44.65;34.80;;;;;;;11.26;100.00;100411.22;5033941;28;20037;-74
2023/04/18 10:17:27;;;;;;;53.92;34.47;;;;;;;11.54;100.00;100430.09;5034158;28;20052;-74
2023/04/18 10:20:07;;;;;;;44.53;36.50;;;;;;;11.84;99.16;100416.81;5033697;28;20036;-74
2023/04/18 10:22:34;;;;;;;45.33;33.47;;;;;;;12.09;99.40;100425.38;5033826;28;20052;-74
2023/04/18 10:24:59;;;;;;;47.05;36.03;;;;;;;11.98;98.00;100410.16;5033700;28;20589;-75
2023/04/18 10:27:46;;;;;;;44.22;35.33;;;;;;;11.98;98.14;100422.34;5033801;28;20230;-75
2023/04/18 10:30:12;;;;;;;46.67;34.17;;;;;;;11.90;96.88;100413.97;5033716;28;20117;-74
2023/04/18 10:32:38;;;;;;;44.78;35.33;;;;;;;11.89;96.65;100418.34;5033904;28;20162;-75
2023/04/18 10:35:05;;;;;;;47.88;36.75;;;;;;;12.09;96.74;100414.91;5032555;28;20504;-74
2023/04/18 10:37:31;;;;;;;48.53;38.08;;;;;;;12.08;96.35;100402.78;5033339;28;20037;-77
2023/04/18 10:39:59;;;;;;;46.95;36.85;;;;;;;11.97;95.90;100429.34;5033411;28;20041;-77
2023/04/18 10:42:46;;;;;;;44.05;35.05;;;;;;;11.65;97.43;100419.28;5033495;28;20049;-77
2023/04/18 10:45:22;;;;;;;50.38;38.35;;;;;;;11.79;97.68;100418.72;5033344;28;20025;-77
2023/04/18 10:47:48;;;;;;;49.97;38.88;;;;;;;11.79;98.44;100396.09;5031671;28;20595;-77
2023/04/18 10:50:14;;;;;;;57.83;43.88;;;;;;;11.87;98.66;100411.47;5033538;28;20108;-77
2023/04/18 10:52:40;;;;;;;57.33;44.05;;;;;;;11.81;98.45;100422.16;5033402;28;20025;-77
2023/04/18 10:55:11;;;;;;;53.20;42.00;;;;;;;11.87;98.61;100422.78;5033144;28;20040;-77
2023/04/18 10:57:47;;;;;;;56.40;43.38;;;;;;;11.63;98.71;100421.97;5033314;28;20035;-77
2023/04/18 11:00:15;;;;;;;57.25;43.13;;;;;;;11.61;99.20;100404.66;5033112;28;20076;-77
2023/04/18 11:02:48;;;;;;;51.83;37.75;;;;;;;11.61;98.42;100422.91;5033302;28;20036;-77